Terminal Aerodrome Forecast
Issued by NWS Albany, NY

Home | Current Version | Previous Version | Text Only | Print | Product List | Glossary On
Versions: 1 2 3 4 5 6 7 8 9 10 11 12 13 14 15 16 17 18 19 20
000
FTUS41 KALY 040521
TAFGFL
TAF
KGFL 040521Z 0406/0506 00000KT P6SM BKN250
     FM041100 00000KT P6SM VCSH SCT045 OVC150
     FM041400 17004KT P6SM -SHRA BKN045 OVC090
     FM041900 19006KT P6SM VCSH BKN090 OVC120
     FM050200 19003KT P6SM VCSH BKN070 OVC090=

USA.gov is the U.S. government's official web portal to all federal, state and local government web resources and services.